Time;durP1;ratioP1;P1;durP2;ratioP2;P2;SDS_P1;SDS_P2;PMS_P1;PMS_P2;Temp;Humidity;BMP_temperature;BMP_pressure;BME280_temperature;BME280_humidity;BME280_pressure;Samples;Min_cycle;Max_cycle;Signal;HPM_P1;HPM_P2
2023/12/28 00:01:56;;;;;;;5.50;3.30;;;8.90;99.90;;;;;;5054706;28;20033;-82
2023/12/28 00:04:22;;;;;;;6.70;3.45;;;8.90;99.90;;;;;;5044962;28;20439;-81
2023/12/28 00:06:47;;;;;;;5.85;3.53;;;9.00;99.90;;;;;;5049837;28;20079;-82
2023/12/28 00:09:13;;;;;;;5.88;3.15;;;8.90;99.90;;;;;;5052898;28;20106;-82
2023/12/28 00:11:39;;;;;;;5.88;3.35;;;8.90;99.90;;;;;;5053011;28;20516;-82
2023/12/28 00:14:04;;;;;;;4.50;3.22;;;9.00;99.90;;;;;;5054010;28;20079;-81
2023/12/28 00:16:32;;;;;;;5.10;3.13;;;8.90;99.90;;;;;;5047103;28;20033;-81
2023/12/28 00:18:58;;;;;;;5.47;3.08;;;8.90;99.90;;;;;;5053425;28;20106;-82
2023/12/28 00:21:23;;;;;;;5.53;3.40;;;9.00;99.90;;;;;;5054722;28;20036;-81
2023/12/28 00:23:49;;;;;;;7.40;3.33;;;9.00;99.90;;;;;;5050099;28;20041;-80
2023/12/28 00:26:21;;;;;;;6.22;3.15;;;8.90;99.90;;;;;;5048656;28;20136;-80
2023/12/28 00:28:47;;;;;;;6.15;3.65;;;8.90;99.90;;;;;;5050159;28;20046;-81
2023/12/28 00:31:12;;;;;;;6.47;3.80;;;9.10;99.90;;;;;;5050944;28;20033;-81
2023/12/28 00:33:38;;;;;;;6.75;3.50;;;9.00;99.90;;;;;;5054181;28;20040;-81
2023/12/28 00:36:04;;;;;;;6.38;3.58;;;9.10;99.90;;;;;;5048382;28;20044;-81
2023/12/28 00:38:29;;;;;;;6.80;3.53;;;9.00;99.90;;;;;;5045552;28;20036;-80
2023/12/28 00:40:55;;;;;;;6.00;3.28;;;9.00;99.90;;;;;;5051267;28;21427;-82
2023/12/28 00:43:21;;;;;;;4.95;3.38;;;9.00;99.90;;;;;;5046929;28;20398;-82
2023/12/28 00:45:46;;;;;;;5.30;3.40;;;9.00;99.90;;;;;;5052409;28;20036;-81
2023/12/28 00:48:12;;;;;;;6.90;3.60;;;9.00;99.90;;;;;;5046204;28;20045;-82
2023/12/28 00:50:38;;;;;;;7.00;3.60;;;9.00;99.90;;;;;;5048981;28;20041;-82
2023/12/28 00:53:04;;;;;;;8.20;3.67;;;9.20;99.90;;;;;;5047315;28;20059;-81
2023/12/28 00:55:29;;;;;;;7.25;3.45;;;9.00;99.90;;;;;;5051399;28;20036;-82
2023/12/28 00:57:55;;;;;;;5.55;3.45;;;9.20;99.90;;;;;;5049637;28;20039;-81
2023/12/28 01:00:21;;;;;;;7.43;3.45;;;9.00;99.90;;;;;;5051771;28;20558;-81
2023/12/28 01:02:46;;;;;;;7.78;3.25;;;9.00;99.90;;;;;;5043705;28;20500;-81
2023/12/28 01:05:13;;;;;;;9.90;3.42;;;9.00;99.90;;;;;;5046704;28;20132;-81
2023/12/28 01:07:39;;;;;;;8.55;3.92;;;9.00;99.90;;;;;;5048903;28;20040;-82
2023/12/28 01:10:05;;;;;;;5.95;3.40;;;9.20;99.90;;;;;;5051430;28;20048;-80
2023/12/28 01:12:30;;;;;;;5.88;3.58;;;9.00;99.90;;;;;;5048046;28;20041;-82
2023/12/28 01:14:56;;;;;;;8.25;3.22;;;9.00;99.90;;;;;;5051995;28;20094;-81
2023/12/28 01:17:22;;;;;;;8.70;3.88;;;8.90;99.90;;;;;;5053761;28;20045;-81
2023/12/28 01:19:47;;;;;;;6.05;3.40;;;8.90;99.90;;;;;;5048435;28;20485;-81
2023/12/28 01:22:13;;;;;;;6.75;3.35;;;8.90;99.90;;;;;;5046280;28;20135;-82
2023/12/28 01:24:38;;;;;;;9.55;3.40;;;8.90;99.90;;;;;;5048903;28;20121;-81
2023/12/28 01:27:04;;;;;;;8.60;3.20;;;9.00;99.90;;;;;;5051826;28;20080;-81
2023/12/28 01:29:30;;;;;;;6.47;3.55;;;8.80;99.90;;;;;;5051693;28;20060;-82
2023/12/28 01:31:56;;;;;;;6.25;3.08;;;8.80;99.90;;;;;;5051644;28;20046;-82
2023/12/28 01:34:22;;;;;;;7.50;3.53;;;8.70;99.90;;;;;;5050558;28;20037;-81
2023/12/28 01:36:47;;;;;;;7.10;3.33;;;8.90;99.90;;;;;;5050657;28;20108;-82
2023/12/28 01:39:15;;;;;;;7.28;3.10;;;8.80;99.90;;;;;;5050453;28;20069;-81
2023/12/28 01:41:40;;;;;;;5.40;3.38;;;8.80;99.90;;;;;;5047075;28;20041;-82
2023/12/28 01:44:06;;;;;;;8.88;3.22;;;8.90;99.90;;;;;;5047454;28;20120;-81
2023/12/28 01:46:33;;;;;;;6.95;2.95;;;9.00;99.90;;;;;;5045355;28;20048;-81
2023/12/28 01:48:59;;;;;;;10.82;4.07;;;8.90;99.90;;;;;;5080415;28;20045;-81
2023/12/28 01:51:25;;;;;;;7.30;3.10;;;8.80;99.90;;;;;;5043570;28;20509;-82
2023/12/28 01:53:52;;;;;;;6.82;2.90;;;8.90;99.90;;;;;;5043942;28;20049;-81
2023/12/28 01:56:19;;;;;;;12.30;3.40;;;9.00;99.90;;;;;;5046871;28;20112;-82
2023/12/28 01:58:46;;;;;;;10.95;3.35;;;8.80;99.90;;;;;;5046865;28;20147;-82
2023/12/28 02:01:11;;;;;;;9.18;3.13;;;9.20;99.90;;;;;;5050809;28;20127;-81
2023/12/28 02:03:38;;;;;;;9.15;2.80;;;8.80;99.90;;;;;;5045444;28;20029;-80
2023/12/28 02:06:06;;;;;;;8.68;3.13;;;8.90;99.90;;;;;;5046485;28;20044;-82
2023/12/28 02:08:32;;;;;;;6.55;2.80;;;8.90;99.90;;;;;;5041902;28;20497;-82
2023/12/28 02:10:58;;;;;;;10.57;3.15;;;8.80;99.90;;;;;;5050059;28;20056;-81
2023/12/28 02:13:25;;;;;;;12.68;2.92;;;9.00;99.90;;;;;;5047900;28;20037;-81
2023/12/28 02:15:58;;;;;;;14.73;3.40;;;8.90;99.90;;;;;;5051488;28;20048;-82
2023/12/28 02:18:30;;;;;;;10.15;2.70;;;9.00;99.90;;;;;;5050646;28;20037;-81
2023/12/28 02:20:57;;;;;;;10.13;3.13;;;8.90;99.90;;;;;;5084655;28;20033;-81
2023/12/28 02:23:23;;;;;;;7.00;2.97;;;8.90;99.90;;;;;;5039691;28;20048;-82
2023/12/28 02:25:49;;;;;;;7.70;2.80;;;8.90;99.90;;;;;;5046728;28;20641;-82
2023/12/28 02:28:15;;;;;;;9.75;2.72;;;8.80;99.90;;;;;;5049708;28;20040;-82
2023/12/28 02:30:41;;;;;;;6.68;2.63;;;8.90;99.90;;;;;;5050768;28;20077;-82
2023/12/28 02:33:21;;;;;;;7.50;3.20;;;8.90;99.90;;;;;;5051003;28;20051;-82
2023/12/28 02:35:58;;;;;;;11.73;3.33;;;9.30;99.90;;;;;;5045076;28;20037;-81
2023/12/28 02:38:25;;;;;;;9.05;2.75;;;8.90;99.90;;;;;;5046662;28;20441;-81
2023/12/28 02:40:52;;;;;;;9.70;2.95;;;8.80;99.90;;;;;;5048859;28;20110;-82
2023/12/28 02:43:18;;;;;;;9.30;3.22;;;8.90;99.90;;;;;;5045370;28;20388;-82
2023/12/28 02:45:43;;;;;;;11.05;3.13;;;8.90;99.90;;;;;;5047177;28;20037;-82
2023/12/28 02:48:09;;;;;;;9.43;3.35;;;8.90;99.90;;;;;;5050947;28;20416;-81
2023/12/28 02:50:35;;;;;;;6.00;2.70;;;8.90;99.90;;;;;;5038118;28;20049;-81
2023/12/28 02:53:01;;;;;;;10.93;3.10;;;9.00;99.90;;;;;;5048059;28;20037;-82
2023/12/28 02:55:26;;;;;;;8.90;3.20;;;9.00;99.90;;;;;;5050279;28;20515;-82
2023/12/28 02:57:59;;;;;;;9.27;2.90;;;9.00;99.90;;;;;;5051403;28;20033;-82
2023/12/28 03:00:25;;;;;;;9.95;3.30;;;9.10;99.90;;;;;;5045957;28;20041;-82
2023/12/28 03:02:51;;;;;;;7.95;2.53;;;9.10;99.90;;;;;;5042878;28;20102;-81
2023/12/28 03:05:16;;;;;;;10.60;2.92;;;9.10;99.90;;;;;;5048723;28;20070;-82
2023/12/28 03:07:42;;;;;;;11.13;3.15;;;9.20;99.90;;;;;;5040405;28;20045;-82
2023/12/28 03:10:08;;;;;;;8.77;3.20;;;9.20;99.90;;;;;;5051025;28;20037;-82
2023/12/28 03:12:34;;;;;;;13.02;3.47;;;9.30;99.90;;;;;;5050019;28;20044;-81
2023/12/28 03:14:59;;;;;;;8.07;3.33;;;9.40;99.90;;;;;;5049002;28;20561;-82
2023/12/28 03:17:25;;;;;;;12.25;3.17;;;9.40;99.90;;;;;;5050017;28;20377;-82
2023/12/28 03:19:51;;;;;;;12.00;3.35;;;9.50;99.90;;;;;;5044254;28;20044;-82
2023/12/28 03:22:17;;;;;;;9.10;2.83;;;9.50;99.90;;;;;;5049003;28;20516;-82
2023/12/28 03:24:43;;;;;;;9.98;2.70;;;9.50;99.90;;;;;;5050630;28;20079;-82
2023/12/28 03:27:09;;;;;;;7.00;2.75;;;9.60;99.90;;;;;;5050122;28;20083;-82
2023/12/28 03:29:35;;;;;;;9.43;2.53;;;9.50;99.90;;;;;;5046130;28;20044;-82
2023/12/28 03:32:01;;;;;;;10.68;2.50;;;9.70;99.90;;;;;;5046432;28;20123;-81
2023/12/28 03:34:29;;;;;;;9.65;2.88;;;9.80;99.90;;;;;;5049423;28;20037;-82
2023/12/28 03:36:54;;;;;;;9.10;2.65;;;9.60;99.90;;;;;;5049714;28;20722;-81
2023/12/28 03:39:20;;;;;;;8.80;2.55;;;9.60;99.90;;;;;;5048511;28;20041;-81
2023/12/28 03:41:47;;;;;;;8.65;2.63;;;9.60;99.90;;;;;;5042297;28;20051;-82
2023/12/28 03:44:13;;;;;;;11.20;2.72;;;9.70;99.90;;;;;;5050325;28;20033;-79
2023/12/28 03:46:38;;;;;;;12.65;2.70;;;9.70;99.90;;;;;;5042499;28;20034;-81
2023/12/28 03:49:04;;;;;;;8.05;2.40;;;9.70;99.90;;;;;;5044174;28;20098;-81
2023/12/28 03:51:30;;;;;;;10.43;2.63;;;9.70;99.90;;;;;;5046786;28;20104;-82
2023/12/28 03:53:55;;;;;;;13.32;2.85;;;9.70;99.90;;;;;;5047476;28;20422;-82
2023/12/28 03:56:27;;;;;;;9.55;2.33;;;9.90;99.90;;;;;;5042729;28;20116;-82
2023/12/28 03:58:54;;;;;;;10.77;2.50;;;9.70;99.90;;;;;;5041914;28;20039;-82
2023/12/28 04:01:21;;;;;;;8.52;2.50;;;9.80;99.90;;;;;;5050599;28;20467;-82
2023/12/28 04:03:48;;;;;;;11.73;2.30;;;9.70;99.90;;;;;;5046596;28;20064;-81
2023/12/28 04:06:14;;;;;;;7.50;2.10;;;9.80;99.90;;;;;;5054287;28;20052;-82
2023/12/28 04:08:43;;;;;;;9.52;2.40;;;9.80;99.90;;;;;;5048555;28;20029;-82
2023/12/28 04:11:09;;;;;;;10.82;2.33;;;9.80;99.90;;;;;;5039513;28;20409;-81
2023/12/28 04:13:36;;;;;;;8.93;2.60;;;9.80;99.90;;;;;;5048079;28;20044;-81
2023/12/28 04:16:02;;;;;;;8.88;2.30;;;10.10;99.90;;;;;;5049387;28;20484;-80
2023/12/28 04:18:28;;;;;;;6.72;2.42;;;9.90;99.90;;;;;;5043480;28;20029;-81
2023/12/28 04:20:54;;;;;;;6.65;2.40;;;9.90;99.90;;;;;;5081039;28;20045;-82
2023/12/28 04:23:20;;;;;;;7.13;2.20;;;9.90;99.90;;;;;;5045502;28;20471;-82
2023/12/28 04:25:46;;;;;;;8.85;2.33;;;9.90;99.90;;;;;;5049602;28;20069;-81
2023/12/28 04:28:11;;;;;;;7.72;2.40;;;10.00;99.90;;;;;;5049358;28;20045;-81
2023/12/28 04:30:37;;;;;;;12.02;2.50;;;9.90;99.90;;;;;;5049902;28;20072;-82
2023/12/28 04:33:03;;;;;;;7.70;2.65;;;10.00;99.90;;;;;;5052110;28;20095;-82
2023/12/28 04:35:29;;;;;;;11.95;3.03;;;10.00;99.90;;;;;;5051540;28;20064;-82
2023/12/28 04:37:54;;;;;;;8.60;2.70;;;10.00;99.90;;;;;;5043142;28;20557;-82
2023/12/28 04:40:20;;;;;;;12.35;2.30;;;10.00;99.90;;;;;;5051818;28;20029;-81
2023/12/28 04:42:46;;;;;;;12.07;2.80;;;10.00;99.90;;;;;;5050415;28;20067;-83
2023/12/28 04:45:12;;;;;;;9.90;2.67;;;10.20;99.90;;;;;;5054020;28;20508;-83
2023/12/28 04:47:37;;;;;;;12.50;2.75;;;10.00;99.90;;;;;;5050550;28;20655;-82
2023/12/28 04:50:04;;;;;;;11.55;2.78;;;10.00;99.90;;;;;;5049941;28;20044;-82
2023/12/28 04:52:30;;;;;;;10.82;3.13;;;10.00;99.90;;;;;;5048025;28;20556;-80
2023/12/28 04:54:56;;;;;;;13.80;2.78;;;10.00;99.90;;;;;;5052092;28;20035;-82
2023/12/28 04:57:24;;;;;;;10.73;2.45;;;10.00;99.90;;;;;;5053622;28;20126;-81
2023/12/28 04:59:50;;;;;;;10.38;2.45;;;10.10;99.90;;;;;;5049458;28;20045;-82
2023/12/28 05:02:16;;;;;;;12.40;2.85;;;10.10;99.90;;;;;;5051714;28;20048;-82
2023/12/28 05:04:41;;;;;;;10.90;2.42;;;10.00;99.90;;;;;;5047389;28;20407;-81
2023/12/28 05:07:07;;;;;;;11.57;2.47;;;10.10;99.90;;;;;;5048194;28;20112;-81
2023/12/28 05:09:33;;;;;;;9.90;2.47;;;10.00;99.90;;;;;;5053294;28;20049;-83
2023/12/28 05:11:58;;;;;;;13.40;3.45;;;10.00;99.90;;;;;;5048555;28;20049;-82
2023/12/28 05:14:24;;;;;;;11.30;2.40;;;10.00;99.90;;;;;;5047616;28;20052;-82
2023/12/28 05:16:50;;;;;;;10.15;2.58;;;10.00;99.90;;;;;;5079364;28;20037;-82
2023/12/28 05:19:15;;;;;;;13.30;2.95;;;10.00;99.90;;;;;;5049968;28;20488;-82
2023/12/28 05:21:41;;;;;;;12.52;2.47;;;10.00;99.90;;;;;;5048885;28;20048;-82
2023/12/28 05:24:07;;;;;;;12.45;2.63;;;10.00;99.90;;;;;;5048626;28;20037;-82
2023/12/28 05:26:33;;;;;;;15.10;2.47;;;10.00;99.90;;;;;;5047645;28;20030;-81
2023/12/28 05:28:58;;;;;;;13.05;2.33;;;10.00;99.90;;;;;;5050773;28;20047;-82
2023/12/28 05:31:24;;;;;;;7.38;2.80;;;10.10;99.90;;;;;;5031195;28;20123;-84
2023/12/28 05:33:50;;;;;;;13.20;2.42;;;10.20;99.90;;;;;;5049777;28;20468;-82
2023/12/28 05:36:15;;;;;;;9.60;2.70;;;10.20;99.90;;;;;;5051900;28;20033;-81
2023/12/28 05:38:41;;;;;;;12.40;2.55;;;10.00;99.90;;;;;;5045720;28;20057;-82
2023/12/28 05:41:09;;;;;;;11.07;2.65;;;10.10;99.90;;;;;;5050283;28;20044;-82
2023/12/28 05:43:34;;;;;;;13.20;2.72;;;10.10;99.90;;;;;;5050834;28;20044;-82
2023/12/28 05:46:00;;;;;;;10.88;2.60;;;10.10;99.90;;;;;;5049561;28;20427;-81
2023/12/28 05:48:26;;;;;;;9.35;2.97;;;10.20;99.90;;;;;;5045334;28;20570;-81
2023/12/28 05:50:51;;;;;;;10.68;2.42;;;10.10;99.90;;;;;;5050998;28;20029;-82
2023/12/28 05:53:17;;;;;;;11.57;2.50;;;10.10;99.90;;;;;;5049864;28;20087;-81
2023/12/28 05:55:43;;;;;;;13.60;2.83;;;10.10;99.90;;;;;;5047161;28;20041;-82
2023/12/28 05:58:09;;;;;;;9.40;2.35;;;10.10;99.90;;;;;;5050494;28;20037;-83
2023/12/28 06:00:36;;;;;;;9.70;2.47;;;10.10;99.90;;;;;;5051018;28;20036;-82
2023/12/28 06:03:02;;;;;;;8.85;2.13;;;10.10;99.90;;;;;;5047292;28;20048;-82
2023/12/28 06:05:28;;;;;;;13.60;2.80;;;10.10;99.90;;;;;;5083154;28;20037;-82
2023/12/28 06:07:54;;;;;;;13.00;3.20;;;10.20;99.90;;;;;;5052663;28;20037;-82
2023/12/28 06:10:20;;;;;;;12.40;2.70;;;10.00;99.90;;;;;;5050973;28;20406;-80
2023/12/28 06:12:45;;;;;;;13.55;3.13;;;10.00;99.90;;;;;;5048298;28;20478;-82
2023/12/28 06:15:11;;;;;;;10.00;2.53;;;10.00;99.90;;;;;;5044347;28;20044;-80
2023/12/28 06:17:37;;;;;;;10.95;2.50;;;10.00;99.90;;;;;;5046898;28;20040;-82
2023/12/28 06:20:02;;;;;;;11.25;2.33;;;10.00;99.90;;;;;;5046810;28;20052;-82
2023/12/28 06:22:28;;;;;;;15.98;2.38;;;10.00;99.90;;;;;;5050403;28;20048;-82
2023/12/28 06:24:55;;;;;;;11.02;2.08;;;10.00;99.90;;;;;;5049208;28;20508;-82
2023/12/28 06:27:21;;;;;;;17.58;3.17;;;10.10;99.90;;;;;;5049949;28;20045;-83
2023/12/28 06:29:47;;;;;;;12.30;2.60;;;10.10;99.90;;;;;;5047713;28;20055;-82
2023/12/28 06:32:12;;;;;;;15.18;2.75;;;10.10;99.90;;;;;;5047758;28;20485;-82
2023/12/28 06:34:39;;;;;;;10.40;2.75;;;10.10;99.90;;;;;;5045804;28;20100;-81
2023/12/28 06:37:04;;;;;;;11.88;2.50;;;10.20;99.90;;;;;;5081211;28;20128;-83
2023/12/28 06:39:30;;;;;;;11.35;2.47;;;10.20;99.90;;;;;;5049632;28;20120;-82
2023/12/28 06:41:56;;;;;;;14.02;3.05;;;10.10;99.90;;;;;;5049441;28;20420;-83
2023/12/28 06:44:21;;;;;;;12.65;2.28;;;10.10;99.90;;;;;;5049433;28;20132;-83
2023/12/28 06:46:47;;;;;;;14.57;2.63;;;10.10;99.90;;;;;;5049628;28;20045;-82
2023/12/28 06:49:12;;;;;;;20.45;3.00;;;10.10;99.90;;;;;;5050746;28;20029;-82
2023/12/28 06:51:38;;;;;;;14.52;2.60;;;10.10;99.90;;;;;;5046002;28;20041;-82
2023/12/28 06:54:04;;;;;;;12.35;2.40;;;10.10;99.90;;;;;;5045544;28;20037;-82
2023/12/28 06:56:29;;;;;;;19.02;3.20;;;10.20;99.90;;;;;;5048410;28;20116;-83
2023/12/28 06:58:55;;;;;;;13.68;2.72;;;10.20;99.90;;;;;;5049635;28;20377;-82
2023/12/28 07:01:21;;;;;;;13.23;2.45;;;10.20;99.90;;;;;;5045226;28;20038;-83
2023/12/28 07:03:46;;;;;;;11.73;2.72;;;10.20;99.90;;;;;;5047002;28;20037;-82
2023/12/28 07:06:14;;;;;;;12.85;2.55;;;10.20;99.90;;;;;;5046623;28;20033;-83
2023/12/28 07:08:39;;;;;;;16.83;2.78;;;10.20;99.90;;;;;;5044131;28;20447;-82
2023/12/28 07:11:05;;;;;;;10.35;2.10;;;10.20;99.90;;;;;;5044495;28;20047;-81
2023/12/28 07:13:31;;;;;;;15.35;3.42;;;10.20;99.90;;;;;;5040616;28;20045;-81
2023/12/28 07:15:57;;;;;;;12.65;3.03;;;10.20;99.90;;;;;;5042692;28;20065;-81
2023/12/28 07:18:23;;;;;;;15.43;2.85;;;10.40;99.90;;;;;;5047722;28;20065;-81
2023/12/28 07:20:48;;;;;;;13.55;2.60;;;10.20;99.90;;;;;;5044951;28;20036;-82
2023/12/28 07:23:14;;;;;;;15.13;2.30;;;10.30;99.90;;;;;;5045695;28;20491;-82
2023/12/28 07:25:40;;;;;;;9.93;2.60;;;10.20;99.90;;;;;;5045630;28;20492;-82
2023/12/28 07:28:06;;;;;;;11.75;2.72;;;10.20;99.90;;;;;;5047667;28;20073;-82
2023/12/28 07:30:31;;;;;;;12.73;2.53;;;10.20;99.90;;;;;;5045578;28;20059;-83
2023/12/28 07:32:57;;;;;;;20.20;2.92;;;10.20;99.90;;;;;;5051946;28;20096;-80
2023/12/28 07:35:23;;;;;;;16.33;2.88;;;10.10;99.90;;;;;;5053030;28;20175;-80
2023/12/28 07:37:49;;;;;;;16.30;2.90;;;10.20;99.90;;;;;;5046949;28;20044;-81
2023/12/28 07:40:15;;;;;;;16.00;2.95;;;10.50;99.90;;;;;;5049438;28;20166;-81
2023/12/28 07:42:41;;;;;;;18.52;3.20;;;10.20;99.90;;;;;;5053595;28;20120;-80
2023/12/28 07:45:07;;;;;;;17.95;4.07;;;10.20;99.90;;;;;;5082713;28;20049;-81
2023/12/28 07:47:33;;;;;;;13.88;3.10;;;10.20;99.90;;;;;;5089135;28;20048;-82
2023/12/28 07:50:00;;;;;;;12.85;2.58;;;10.40;99.90;;;;;;5082469;28;20048;-82
2023/12/28 07:52:26;;;;;;;19.05;3.38;;;10.30;99.90;;;;;;5045692;28;20042;-82
2023/12/28 07:54:51;;;;;;;21.73;3.50;;;10.20;99.90;;;;;;5045655;28;20109;-81
2023/12/28 07:57:18;;;;;;;16.65;3.42;;;10.40;99.90;;;;;;5047915;28;20477;-83
2023/12/28 07:59:44;;;;;;;21.00;3.30;;;10.60;99.90;;;;;;5046483;28;20037;-82
2023/12/28 08:02:09;;;;;;;18.05;3.35;;;10.40;99.90;;;;;;5048657;28;20048;-82
2023/12/28 08:04:35;;;;;;;13.00;2.40;;;10.50;99.90;;;;;;5050337;28;20113;-82
2023/12/28 08:07:01;;;;;;;20.25;3.10;;;10.50;99.90;;;;;;5048032;28;20095;-83
2023/12/28 08:09:26;;;;;;;17.25;3.08;;;10.50;99.90;;;;;;5045432;28;20086;-81
2023/12/28 08:11:52;;;;;;;22.83;3.35;;;10.40;99.90;;;;;;5054610;28;20075;-82
2023/12/28 08:14:19;;;;;;;19.05;3.55;;;10.60;99.90;;;;;;5047005;28;20470;-81
2023/12/28 08:16:44;;;;;;;16.58;3.33;;;10.50;99.90;;;;;;5049321;28;20037;-82
2023/12/28 08:19:10;;;;;;;21.92;4.45;;;10.80;99.90;;;;;;5055937;28;20039;-82
2023/12/28 08:21:36;;;;;;;17.85;3.35;;;10.60;99.90;;;;;;5053059;28;20040;-82
2023/12/28 08:24:02;;;;;;;14.55;3.60;;;10.60;99.90;;;;;;5051895;28;20041;-82
2023/12/28 08:26:28;;;;;;;24.90;3.08;;;10.50;99.90;;;;;;5050595;28;20048;-82
2023/12/28 08:28:54;;;;;;;23.38;4.07;;;10.90;99.90;;;;;;5053464;28;20045;-82
2023/12/28 08:31:19;;;;;;;20.90;3.50;;;10.50;99.90;;;;;;5054057;28;20695;-83
2023/12/28 08:33:45;;;;;;;13.40;2.92;;;10.60;99.90;;;;;;5050416;28;20035;-83
2023/12/28 08:36:11;;;;;;;22.25;3.63;;;10.90;99.90;;;;;;5053665;28;20383;-82
2023/12/28 08:38:38;;;;;;;17.10;3.42;;;10.70;99.90;;;;;;5053654;28;20090;-83
2023/12/28 08:41:08;;;;;;;18.92;3.10;;;11.00;99.90;;;;;;5052753;28;20571;-84
2023/12/28 08:43:35;;;;;;;22.92;4.15;;;10.50;99.90;;;;;;5052967;28;20049;-83
2023/12/28 08:46:00;;;;;;;22.20;3.40;;;10.90;99.90;;;;;;5048890;28;20128;-82
2023/12/28 08:48:26;;;;;;;16.73;3.25;;;10.70;99.90;;;;;;5051306;28;20072;-81
2023/12/28 08:50:51;;;;;;;22.73;3.50;;;10.60;99.90;;;;;;5048892;28;20521;-82
2023/12/28 08:53:17;;;;;;;21.63;3.47;;;10.50;99.90;;;;;;5048193;28;20091;-82
2023/12/28 08:55:43;;;;;;;18.35;3.83;;;10.60;99.90;;;;;;5050670;28;20103;-81
2023/12/28 08:58:08;;;;;;;26.52;3.63;;;10.60;99.90;;;;;;5052269;28;20045;-80
2023/12/28 09:00:34;;;;;;;18.80;3.00;;;10.50;99.90;;;;;;5061082;28;20044;-83
2023/12/28 09:02:59;;;;;;;18.40;4.05;;;10.50;99.90;;;;;;5085544;28;20420;-82
2023/12/28 09:05:25;;;;;;;22.58;3.80;;;10.40;99.90;;;;;;5048816;28;20501;-82
2023/12/28 09:07:51;;;;;;;17.27;4.20;;;10.60;99.90;;;;;;5052072;28;20036;-82
2023/12/28 09:10:16;;;;;;;25.63;3.92;;;10.90;99.90;;;;;;5054009;28;20144;-83
2023/12/28 09:12:42;;;;;;;19.23;3.92;;;10.90;99.90;;;;;;5053497;28;20033;-82
2023/12/28 09:15:08;;;;;;;21.00;4.03;;;11.00;99.90;;;;;;5051875;28;20041;-82
2023/12/28 09:17:35;;;;;;;17.73;3.22;;;10.60;99.90;;;;;;5050892;28;20040;-83
2023/12/28 09:20:04;;;;;;;17.77;3.42;;;11.00;99.90;;;;;;5051655;28;20041;-82
2023/12/28 09:22:30;;;;;;;21.33;3.42;;;10.90;99.90;;;;;;5053297;28;20037;-81
2023/12/28 09:24:55;;;;;;;18.30;3.70;;;10.70;99.90;;;;;;5043300;28;20496;-82
2023/12/28 09:27:21;;;;;;;20.48;3.90;;;10.80;99.90;;;;;;5051640;28;20079;-81
2023/12/28 09:29:46;;;;;;;16.48;2.60;;;11.00;99.90;;;;;;5085001;28;20051;-82
2023/12/28 09:32:12;;;;;;;19.33;3.63;;;11.00;99.90;;;;;;5051405;28;20087;-82
2023/12/28 09:34:39;;;;;;;22.50;3.60;;;11.00;99.90;;;;;;5050036;28;20117;-82
2023/12/28 09:37:05;;;;;;;20.63;3.42;;;10.90;99.90;;;;;;5049956;28;20497;-82
2023/12/28 09:39:30;;;;;;;24.25;3.88;;;10.60;99.90;;;;;;5051436;28;20039;-82
2023/12/28 09:42:04;;;;;;;24.88;4.38;;;10.90;99.90;;;;;;5052713;28;20064;-82
2023/12/28 09:44:32;;;;;;;21.90;3.72;;;10.90;99.90;;;;;;5050555;28;20036;-82
2023/12/28 09:46:58;;;;;;;20.60;4.47;;;10.60;99.90;;;;;;5051539;28;20062;-82
2023/12/28 09:49:23;;;;;;;19.13;3.40;;;10.80;99.90;;;;;;5051341;28;20074;-82
2023/12/28 09:51:49;;;;;;;19.02;3.63;;;10.70;99.90;;;;;;5049790;28;20041;-83
2023/12/28 09:54:15;;;;;;;20.98;4.03;;;10.90;99.90;;;;;;5050590;28;20044;-83
2023/12/28 09:56:41;;;;;;;23.45;3.55;;;10.60;99.90;;;;;;5048113;28;20052;-82
2023/12/28 09:59:07;;;;;;;22.90;3.15;;;10.60;99.90;;;;;;5045221;28;20037;-83
2023/12/28 10:01:34;;;;;;;22.75;4.15;;;10.60;99.90;;;;;;5048261;28;20033;-82
2023/12/28 10:04:02;;;;;;;15.98;4.15;;;10.90;99.90;;;;;;5049122;28;20041;-83
2023/12/28 10:06:28;;;;;;;22.27;3.83;;;10.90;99.90;;;;;;5046464;28;20047;-82
2023/12/28 10:08:55;;;;;;;20.52;3.67;;;10.70;99.90;;;;;;5046453;28;20475;-82
2023/12/28 10:11:21;;;;;;;13.20;3.38;;;10.60;99.90;;;;;;5049836;28;20045;-83
2023/12/28 10:13:49;;;;;;;18.38;2.88;;;10.90;99.90;;;;;;5046415;28;20079;-82
2023/12/28 10:16:15;;;;;;;18.33;3.63;;;10.90;99.90;;;;;;5044616;28;20451;-82
2023/12/28 10:18:44;;;;;;;20.33;4.05;;;10.70;99.90;;;;;;5048604;28;20117;-83
2023/12/28 10:21:13;;;;;;;22.90;4.25;;;10.90;99.90;;;;;;5042446;28;20041;-83
2023/12/28 10:23:39;;;;;;;20.40;3.80;;;10.70;99.90;;;;;;5052140;28;20052;-83
2023/12/28 10:26:06;;;;;;;19.25;3.38;;;11.00;99.90;;;;;;5083743;28;20056;-82
2023/12/28 10:28:39;;;;;;;17.60;3.05;;;11.10;99.90;;;;;;5050322;28;20072;-82
2023/12/28 10:31:05;;;;;;;20.23;3.45;;;10.70;99.90;;;;;;5048407;28;20045;-82
2023/12/28 10:33:35;;;;;;;17.23;3.50;;;11.00;99.90;;;;;;5049459;28;20061;-83
2023/12/28 10:36:05;;;;;;;23.33;4.25;;;10.80;99.90;;;;;;5050559;28;20400;-82
2023/12/28 10:38:36;;;;;;;24.33;3.45;;;10.80;99.90;;;;;;5047206;28;20089;-82
2023/12/28 10:41:13;;;;;;;19.20;3.42;;;11.10;99.90;;;;;;5049878;28;20488;-83
2023/12/28 10:43:59;;;;;;;22.80;3.80;;;10.80;99.90;;;;;;5049849;28;20036;-82
2023/12/28 10:46:27;;;;;;;21.45;3.80;;;10.80;99.90;;;;;;5045385;28;20374;-82
2023/12/28 10:48:59;;;;;;;17.05;3.42;;;11.10;99.90;;;;;;5043041;28;20099;-83
2023/12/28 10:51:29;;;;;;;18.58;3.35;;;10.90;99.90;;;;;;5046782;28;20045;-83
2023/12/28 10:54:14;;;;;;;20.33;3.50;;;11.20;99.90;;;;;;5046239;28;20111;-83
2023/12/28 10:56:47;;;;;;;17.83;2.83;;;10.80;99.90;;;;;;5047904;28;20041;-84
2023/12/28 10:59:46;;;;;;;20.05;2.97;;;10.90;99.90;;;;;;5078809;28;20079;-83
2023/12/28 11:02:21;;;;;;;18.20;3.35;;;10.80;99.90;;;;;;5047256;28;20114;-83
2023/12/28 11:04:49;;;;;;;21.13;5.05;;;10.80;99.90;;;;;;5049784;28;20048;-82
2023/12/28 11:07:17;;;;;;;17.25;3.40;;;10.80;99.90;;;;;;5048971;28;20506;-83
2023/12/28 11:09:43;;;;;;;15.65;3.20;;;10.90;99.90;;;;;;5045281;28;20174;-84
2023/12/28 11:12:11;;;;;;;19.55;3.45;;;11.10;99.90;;;;;;5046625;28;20119;-84
2023/12/28 11:14:42;;;;;;;21.63;3.42;;;11.10;99.90;;;;;;5074726;28;20059;-82
2023/12/28 11:17:09;;;;;;;21.77;3.65;;;11.00;99.90;;;;;;5047511;28;20037;-83
2023/12/28 11:19:36;;;;;;;16.70;3.60;;;11.10;99.90;;;;;;5045918;28;20489;-83
2023/12/28 11:22:03;;;;;;;16.95;3.95;;;10.90;99.90;;;;;;5049585;28;20036;-83
2023/12/28 11:24:30;;;;;;;22.08;3.78;;;11.10;99.90;;;;;;5048804;28;20048;-82
2023/12/28 11:26:56;;;;;;;24.13;4.47;;;11.10;99.90;;;;;;5048058;28;20044;-82
2023/12/28 11:29:23;;;;;;;23.27;4.60;;;11.10;99.90;;;;;;5045004;28;20139;-83
2023/12/28 11:31:54;;;;;;;20.27;3.97;;;11.00;99.90;;;;;;5043084;28;20045;-82
2023/12/28 11:34:24;;;;;;;22.80;3.53;;;11.10;99.90;;;;;;5046342;28;20037;-82
2023/12/28 11:36:54;;;;;;;19.40;3.88;;;11.10;99.90;;;;;;5050337;28;20031;-83
2023/12/28 11:39:26;;;;;;;21.05;3.97;;;11.10;99.90;;;;;;5044900;28;20041;-83
2023/12/28 11:42:03;;;;;;;21.15;3.88;;;11.00;99.90;;;;;;5053228;28;20041;-83
2023/12/28 11:44:30;;;;;;;17.85;3.53;;;10.50;99.90;;;;;;5052266;28;20045;-83
2023/12/28 11:46:56;;;;;;;23.23;4.05;;;10.80;99.90;;;;;;5055279;28;20551;-83
2023/12/28 11:49:29;;;;;;;20.02;3.75;;;10.80;99.90;;;;;;5053738;28;20051;-83
2023/12/28 11:51:56;;;;;;;19.08;3.05;;;10.60;99.90;;;;;;5054577;28;20043;-84
2023/12/28 11:54:22;;;;;;;20.95;4.00;;;10.50;99.90;;;;;;5053335;28;20111;-83
2023/12/28 11:56:48;;;;;;;18.00;4.00;;;10.50;99.90;;;;;;5082972;28;20500;-83
2023/12/28 11:59:13;;;;;;;21.52;3.50;;;10.90;99.90;;;;;;5054198;28;20035;-84
2023/12/28 12:01:39;;;;;;;19.42;3.67;;;10.60;99.90;;;;;;5048267;28;20095;-83
2023/12/28 12:04:07;;;;;;;20.42;3.33;;;10.90;99.90;;;;;;5046293;28;20044;-82
2023/12/28 12:06:33;;;;;;;20.92;4.03;;;10.80;99.90;;;;;;5050217;28;20033;-84
2023/12/28 12:08:59;;;;;;;25.48;4.53;;;10.60;99.90;;;;;;5054073;28;20048;-82
2023/12/28 12:11:25;;;;;;;19.80;4.20;;;10.80;99.90;;;;;;5045405;28;20045;-83
2023/12/28 12:13:51;;;;;;;22.63;4.78;;;10.80;99.90;;;;;;5047291;28;20033;-82
2023/12/28 12:16:17;;;;;;;23.02;3.97;;;10.90;99.90;;;;;;5044560;28;20519;-82
2023/12/28 12:18:43;;;;;;;22.23;4.00;;;10.90;99.90;;;;;;5050348;28;20033;-82
2023/12/28 12:21:09;;;;;;;28.90;4.97;;;10.90;99.90;;;;;;5053416;28;20044;-83
2023/12/28 12:23:35;;;;;;;25.65;4.50;;;10.60;99.90;;;;;;5052989;28;20478;-82
2023/12/28 12:26:04;;;;;;;18.52;4.07;;;10.60;99.90;;;;;;5053681;28;20113;-83
2023/12/28 12:28:30;;;;;;;23.40;3.95;;;10.60;99.90;;;;;;5052529;28;20082;-83
2023/12/28 12:30:56;;;;;;;23.00;4.72;;;10.90;99.90;;;;;;5053849;28;20032;-83
2023/12/28 12:33:23;;;;;;;26.85;4.60;;;11.00;99.90;;;;;;5051438;28;20048;-82
2023/12/28 12:35:49;;;;;;;23.17;3.80;;;11.10;99.90;;;;;;5053361;28;20112;-82
2023/12/28 12:38:16;;;;;;;20.23;4.30;;;11.00;99.90;;;;;;5055441;28;20037;-81
2023/12/28 12:40:41;;;;;;;23.55;4.00;;;10.80;99.90;;;;;;5055530;28;20045;-84